sensor_id;sensor_type;location;lat;lon;timestamp;pressure;altitude;pressure_sealevel;temperature;humidity
4085;BME280;2057;50.858;6.572;2023-12-14T00:01:14;99433.94;;;7.25;100.00
4085;BME280;2057;50.858;6.572;2023-12-14T00:03:42;99441.38;;;7.22;100.00
4085;BME280;2057;50.858;6.572;2023-12-14T00:06:10;99438.94;;;7.24;100.00
4085;BME280;2057;50.858;6.572;2023-12-14T00:08:35;99449.16;;;7.27;100.00
4085;BME280;2057;50.858;6.572;2023-12-14T00:11:11;99449.03;;;7.24;100.00
4085;BME280;2057;50.858;6.572;2023-12-14T00:13:39;99455.00;;;7.26;100.00
4085;BME280;2057;50.858;6.572;2023-12-14T00:16:05;99453.19;;;7.23;100.00
4085;BME280;2057;50.858;6.572;2023-12-14T00:18:31;99454.78;;;7.21;100.00
4085;BME280;2057;50.858;6.572;2023-12-14T00:20:56;99463.66;;;7.31;100.00
4085;BME280;2057;50.858;6.572;2023-12-14T00:23:22;99467.59;;;7.26;100.00
4085;BME280;2057;50.858;6.572;2023-12-14T00:25:48;99468.41;;;7.25;100.00
4085;BME280;2057;50.858;6.572;2023-12-14T00:28:13;99476.91;;;7.27;100.00
4085;BME280;2057;50.858;6.572;2023-12-14T00:30:38;99474.13;;;7.20;100.00
4085;BME280;2057;50.858;6.572;2023-12-14T00:33:04;99475.06;;;7.22;100.00
4085;BME280;2057;50.858;6.572;2023-12-14T00:35:31;99481.03;;;7.25;100.00
4085;BME280;2057;50.858;6.572;2023-12-14T00:37:57;99491.34;;;7.29;100.00
4085;BME280;2057;50.858;6.572;2023-12-14T00:40:22;99494.31;;;7.20;100.00
4085;BME280;2057;50.858;6.572;2023-12-14T00:42:50;99498.84;;;7.28;100.00
4085;BME280;2057;50.858;6.572;2023-12-14T06:13:43;100097.09;;;5.41;100.00
4085;BME280;2057;50.858;6.572;2023-12-14T06:18:43;100099.78;;;5.44;100.00
4085;BME280;2057;50.858;6.572;2023-12-14T06:26:17;100117.13;;;5.39;100.00
4085;BME280;2057;50.858;6.572;2023-12-14T06:28:42;100118.47;;;5.34;100.00
4085;BME280;2057;50.858;6.572;2023-12-14T06:31:12;100129.22;;;5.31;100.00
4085;BME280;2057;50.858;6.572;2023-12-14T06:33:41;100139.19;;;5.30;100.00
4085;BME280;2057;50.858;6.572;2023-12-14T06:36:08;100145.00;;;5.29;100.00
4085;BME280;2057;50.858;6.572;2023-12-14T06:38:33;100150.31;;;5.20;100.00
4085;BME280;2057;50.858;6.572;2023-12-14T06:40:59;100150.22;;;5.18;100.00
4085;BME280;2057;50.858;6.572;2023-12-14T06:43:24;100147.88;;;5.22;100.00
4085;BME280;2057;50.858;6.572;2023-12-14T06:45:49;100158.16;;;5.11;100.00
4085;BME280;2057;50.858;6.572;2023-12-14T06:48:17;100161.72;;;5.15;100.00
4085;BME280;2057;50.858;6.572;2023-12-14T06:50:42;100163.34;;;5.14;100.00
4085;BME280;2057;50.858;6.572;2023-12-14T06:53:10;100163.25;;;5.13;100.00
4085;BME280;2057;50.858;6.572;2023-12-14T06:55:37;100171.88;;;5.16;100.00
4085;BME280;2057;50.858;6.572;2023-12-14T16:16:21;101014.78;;;4.20;100.00
4085;BME280;2057;50.858;6.572;2023-12-14T16:18:47;101015.16;;;4.25;100.00
4085;BME280;2057;50.858;6.572;2023-12-14T16:21:12;101015.16;;;4.15;100.00
4085;BME280;2057;50.858;6.572;2023-12-14T16:23:38;101021.28;;;4.08;100.00
4085;BME280;2057;50.858;6.572;2023-12-14T16:26:04;101026.47;;;4.10;100.00
4085;BME280;2057;50.858;6.572;2023-12-14T16:28:29;101023.41;;;3.93;100.00
4085;BME280;2057;50.858;6.572;2023-12-14T16:30:55;101036.38;;;3.98;100.00
4085;BME280;2057;50.858;6.572;2023-12-14T16:33:20;101031.94;;;3.95;100.00
4085;BME280;2057;50.858;6.572;2023-12-14T16:35:48;101042.00;;;3.95;100.00
4085;BME280;2057;50.858;6.572;2023-12-14T16:38:13;101046.78;;;3.92;100.00
4085;BME280;2057;50.858;6.572;2023-12-14T16:40:38;101056.19;;;3.95;100.00
4085;BME280;2057;50.858;6.572;2023-12-14T16:43:04;101053.28;;;3.90;100.00
4085;BME280;2057;50.858;6.572;2023-12-14T16:45:29;101062.97;;;3.96;100.00
4085;BME280;2057;50.858;6.572;2023-12-14T16:47:54;101069.84;;;3.88;100.00
4085;BME280;2057;50.858;6.572;2023-12-14T16:50:22;101071.38;;;3.86;100.00
4085;BME280;2057;50.858;6.572;2023-12-14T16:52:48;101074.38;;;3.82;100.00
4085;BME280;2057;50.858;6.572;2023-12-14T16:55:16;101084.28;;;3.80;100.00
4085;BME280;2057;50.858;6.572;2023-12-14T16:57:41;101084.81;;;3.86;100.00
4085;BME280;2057;50.858;6.572;2023-12-14T17:00:06;101082.53;;;3.79;100.00
4085;BME280;2057;50.858;6.572;2023-12-14T17:02:32;101088.19;;;3.87;100.00
4085;BME280;2057;50.858;6.572;2023-12-14T17:05:01;101093.13;;;3.96;100.00
4085;BME280;2057;50.858;6.572;2023-12-14T17:07:26;101102.03;;;3.92;100.00
4085;BME280;2057;50.858;6.572;2023-12-14T17:09:51;101097.75;;;3.91;100.00
4085;BME280;2057;50.858;6.572;2023-12-14T17:12:19;101107.69;;;3.89;100.00
4085;BME280;2057;50.858;6.572;2023-12-14T17:14:44;101112.59;;;3.98;100.00
4085;BME280;2057;50.858;6.572;2023-12-14T17:17:10;101118.38;;;3.97;100.00
4085;BME280;2057;50.858;6.572;2023-12-14T17:19:35;101109.84;;;4.05;100.00
4085;BME280;2057;50.858;6.572;2023-12-14T17:22:00;101117.53;;;4.07;100.00
4085;BME280;2057;50.858;6.572;2023-12-14T17:24:26;101126.97;;;4.10;100.00
4085;BME280;2057;50.858;6.572;2023-12-14T17:26:51;101125.31;;;4.10;100.00
4085;BME280;2057;50.858;6.572;2023-12-14T17:29:17;101124.84;;;4.14;100.00
4085;BME280;2057;50.858;6.572;2023-12-14T17:31:42;101128.75;;;4.11;100.00
4085;BME280;2057;50.858;6.572;2023-12-14T17:34:08;101136.28;;;4.21;100.00
4085;BME280;2057;50.858;6.572;2023-12-14T17:36:38;101135.53;;;4.12;100.00
4085;BME280;2057;50.858;6.572;2023-12-14T17:39:04;101142.56;;;4.16;100.00
4085;BME280;2057;50.858;6.572;2023-12-14T17:41:30;101148.72;;;4.19;100.00
4085;BME280;2057;50.858;6.572;2023-12-14T17:44:00;101154.91;;;4.23;100.00
4085;BME280;2057;50.858;6.572;2023-12-14T17:46:26;101153.47;;;4.16;100.00
4085;BME280;2057;50.858;6.572;2023-12-14T17:48:51;101154.25;;;4.15;100.00
4085;BME280;2057;50.858;6.572;2023-12-14T17:51:16;101163.81;;;4.19;100.00
4085;BME280;2057;50.858;6.572;2023-12-14T17:53:42;101162.66;;;4.16;100.00
4085;BME280;2057;50.858;6.572;2023-12-14T17:56:08;101162.25;;;4.11;100.00
4085;BME280;2057;50.858;6.572;2023-12-14T17:58:34;101161.59;;;4.03;100.00
4085;BME280;2057;50.858;6.572;2023-12-14T18:01:00;101171.06;;;4.06;100.00
4085;BME280;2057;50.858;6.572;2023-12-14T18:03:25;101169.00;;;4.02;100.00
4085;BME280;2057;50.858;6.572;2023-12-14T18:05:54;101168.38;;;4.04;100.00
4085;BME280;2057;50.858;6.572;2023-12-14T18:08:20;101173.06;;;4.10;100.00
4085;BME280;2057;50.858;6.572;2023-12-14T18:10:45;101170.44;;;4.08;100.00
4085;BME280;2057;50.858;6.572;2023-12-14T18:13:11;101169.94;;;4.13;100.00
4085;BME280;2057;50.858;6.572;2023-12-14T18:15:36;101169.34;;;4.15;100.00
4085;BME280;2057;50.858;6.572;2023-12-14T18:18:04;101176.81;;;4.05;100.00
4085;BME280;2057;50.858;6.572;2023-12-14T18:20:32;101174.84;;;4.11;100.00
4085;BME280;2057;50.858;6.572;2023-12-14T18:22:57;101185.94;;;4.23;100.00
4085;BME280;2057;50.858;6.572;2023-12-14T18:25:25;101187.16;;;4.18;100.00
4085;BME280;2057;50.858;6.572;2023-12-14T19:37:34;101269.03;;;3.87;100.00
4085;BME280;2057;50.858;6.572;2023-12-14T19:40:01;101269.84;;;3.96;100.00
4085;BME280;2057;50.858;6.572;2023-12-14T19:42:27;101269.38;;;4.00;100.00
4085;BME280;2057;50.858;6.572;2023-12-14T19:44:52;101277.03;;;4.02;100.00
4085;BME280;2057;50.858;6.572;2023-12-14T19:47:18;101277.16;;;4.03;100.00
4085;BME280;2057;50.858;6.572;2023-12-14T19:49:43;101278.41;;;3.98;100.00
4085;BME280;2057;50.858;6.572;2023-12-14T19:52:09;101280.50;;;3.93;100.00
4085;BME280;2057;50.858;6.572;2023-12-14T19:54:36;101296.47;;;3.94;100.00
4085;BME280;2057;50.858;6.572;2023-12-14T19:57:01;101291.91;;;3.90;100.00
4085;BME280;2057;50.858;6.572;2023-12-14T19:59:26;101296.34;;;4.12;100.00
4085;BME280;2057;50.858;6.572;2023-12-14T20:01:54;101299.69;;;4.31;100.00
4085;BME280;2057;50.858;6.572;2023-12-14T20:04:19;101302.78;;;4.18;100.00
4085;BME280;2057;50.858;6.572;2023-12-14T20:06:46;101299.84;;;4.14;100.00
4085;BME280;2057;50.858;6.572;2023-12-14T20:09:12;101311.28;;;4.10;100.00
4085;BME280;2057;50.858;6.572;2023-12-14T20:11:37;101296.41;;;4.03;100.00
4085;BME280;2057;50.858;6.572;2023-12-14T20:14:05;101309.09;;;4.04;100.00
4085;BME280;2057;50.858;6.572;2023-12-14T20:16:30;101312.63;;;4.06;100.00
4085;BME280;2057;50.858;6.572;2023-12-14T20:18:56;101308.22;;;4.04;100.00
4085;BME280;2057;50.858;6.572;2023-12-14T20:21:21;101314.53;;;4.09;100.00
4085;BME280;2057;50.858;6.572;2023-12-14T20:23:46;101314.16;;;4.34;100.00
4085;BME280;2057;50.858;6.572;2023-12-14T20:26:22;101317.59;;;4.15;100.00
4085;BME280;2057;50.858;6.572;2023-12-14T20:28:48;101323.16;;;4.02;100.00
4085;BME280;2057;50.858;6.572;2023-12-14T20:31:13;101332.31;;;4.02;100.00
4085;BME280;2057;50.858;6.572;2023-12-14T20:33:41;101336.47;;;4.01;100.00
4085;BME280;2057;50.858;6.572;2023-12-14T20:36:10;101334.72;;;4.00;100.00
4085;BME280;2057;50.858;6.572;2023-12-14T20:38:36;101332.06;;;3.99;100.00
4085;BME280;2057;50.858;6.572;2023-12-14T20:41:01;101333.69;;;3.98;100.00
4085;BME280;2057;50.858;6.572;2023-12-14T20:43:27;101333.69;;;3.98;100.00
4085;BME280;2057;50.858;6.572;2023-12-14T20:45:52;101339.00;;;4.01;100.00
4085;BME280;2057;50.858;6.572;2023-12-14T20:48:20;101344.63;;;3.99;100.00
4085;BME280;2057;50.858;6.572;2023-12-14T20:50:45;101344.34;;;3.96;100.00
4085;BME280;2057;50.858;6.572;2023-12-14T20:53:11;101346.44;;;3.91;100.00
4085;BME280;2057;50.858;6.572;2023-12-14T20:55:36;101352.50;;;3.93;100.00
4085;BME280;2057;50.858;6.572;2023-12-14T20:58:01;101346.16;;;3.88;100.00
4085;BME280;2057;50.858;6.572;2023-12-14T21:00:27;101350.03;;;3.84;100.00
4085;BME280;2057;50.858;6.572;2023-12-14T21:02:57;101349.81;;;3.91;100.00
4085;BME280;2057;50.858;6.572;2023-12-14T21:05:25;101358.06;;;3.99;100.00
4085;BME280;2057;50.858;6.572;2023-12-14T21:07:53;101354.25;;;3.94;100.00
4085;BME280;2057;50.858;6.572;2023-12-14T21:10:18;101352.63;;;3.95;100.00
4085;BME280;2057;50.858;6.572;2023-12-14T21:12:44;101356.16;;;3.97;100.00
4085;BME280;2057;50.858;6.572;2023-12-14T21:15:09;101357.03;;;3.97;100.00
4085;BME280;2057;50.858;6.572;2023-12-14T21:17:35;101367.06;;;3.97;100.00
4085;BME280;2057;50.858;6.572;2023-12-14T21:20:01;101362.22;;;3.99;100.00
4085;BME280;2057;50.858;6.572;2023-12-14T21:22:26;101371.66;;;4.01;100.00
4085;BME280;2057;50.858;6.572;2023-12-14T21:24:52;101365.63;;;3.90;100.00
4085;BME280;2057;50.858;6.572;2023-12-14T21:27:24;101364.47;;;3.87;100.00
4085;BME280;2057;50.858;6.572;2023-12-14T21:30:10;101365.72;;;3.82;100.00
4085;BME280;2057;50.858;6.572;2023-12-14T21:32:35;101364.41;;;3.76;100.00
4085;BME280;2057;50.858;6.572;2023-12-14T21:35:01;101375.75;;;3.82;100.00
4085;BME280;2057;50.858;6.572;2023-12-14T21:37:29;101379.84;;;3.90;100.00
4085;BME280;2057;50.858;6.572;2023-12-14T21:39:54;101382.41;;;3.81;100.00
4085;BME280;2057;50.858;6.572;2023-12-14T21:42:19;101379.63;;;3.78;100.00
4085;BME280;2057;50.858;6.572;2023-12-14T21:44:44;101381.81;;;3.84;100.00
4085;BME280;2057;50.858;6.572;2023-12-14T21:47:10;101385.19;;;3.84;100.00
4085;BME280;2057;50.858;6.572;2023-12-14T21:49:35;101389.66;;;3.78;100.00
4085;BME280;2057;50.858;6.572;2023-12-14T21:52:00;101397.94;;;3.77;100.00
4085;BME280;2057;50.858;6.572;2023-12-14T21:54:26;101395.88;;;3.73;100.00
4085;BME280;2057;50.858;6.572;2023-12-14T21:56:51;101404.72;;;3.78;100.00
4085;BME280;2057;50.858;6.572;2023-12-14T21:59:16;101399.22;;;3.82;100.00
4085;BME280;2057;50.858;6.572;2023-12-14T22:01:42;101401.63;;;3.81;100.00
4085;BME280;2057;50.858;6.572;2023-12-14T22:04:10;101414.16;;;3.81;100.00
4085;BME280;2057;50.858;6.572;2023-12-14T22:06:40;101415.94;;;3.82;100.00
4085;BME280;2057;50.858;6.572;2023-12-14T22:09:05;101425.53;;;3.86;100.00
4085;BME280;2057;50.858;6.572;2023-12-14T22:11:31;101410.19;;;3.83;100.00
4085;BME280;2057;50.858;6.572;2023-12-14T22:13:56;101420.53;;;3.77;100.00
4085;BME280;2057;50.858;6.572;2023-12-14T22:16:22;101417.16;;;3.76;100.00
4085;BME280;2057;50.858;6.572;2023-12-14T22:18:49;101418.41;;;3.63;100.00
4085;BME280;2057;50.858;6.572;2023-12-14T22:21:18;101423.97;;;3.69;100.00
4085;BME280;2057;50.858;6.572;2023-12-14T22:23:43;101431.94;;;3.73;100.00
4085;BME280;2057;50.858;6.572;2023-12-14T22:26:08;101439.47;;;3.73;100.00
4085;BME280;2057;50.858;6.572;2023-12-14T22:28:36;101429.84;;;3.78;100.00
4085;BME280;2057;50.858;6.572;2023-12-14T22:31:04;101440.63;;;3.77;100.00
4085;BME280;2057;50.858;6.572;2023-12-14T22:33:29;101439.91;;;3.78;100.00
4085;BME280;2057;50.858;6.572;2023-12-14T22:35:55;101444.19;;;3.79;100.00
4085;BME280;2057;50.858;6.572;2023-12-14T22:38:20;101450.31;;;3.91;100.00
4085;BME280;2057;50.858;6.572;2023-12-14T22:40:54;101453.97;;;3.95;100.00
4085;BME280;2057;50.858;6.572;2023-12-14T22:43:20;101458.44;;;3.98;100.00
4085;BME280;2057;50.858;6.572;2023-12-14T22:45:45;101456.28;;;4.11;100.00
4085;BME280;2057;50.858;6.572;2023-12-14T22:48:11;101459.91;;;4.23;100.00
4085;BME280;2057;50.858;6.572;2023-12-14T22:50:37;101461.19;;;4.29;100.00
4085;BME280;2057;50.858;6.572;2023-12-14T22:53:02;101461.91;;;4.36;100.00
4085;BME280;2057;50.858;6.572;2023-12-14T22:55:31;101461.28;;;4.39;100.00
4085;BME280;2057;50.858;6.572;2023-12-14T22:57:56;101459.91;;;4.43;100.00
4085;BME280;2057;50.858;6.572;2023-12-14T23:00:22;101459.44;;;4.47;100.00
4085;BME280;2057;50.858;6.572;2023-12-14T23:02:52;101460.25;;;4.37;100.00
4085;BME280;2057;50.858;6.572;2023-12-14T23:05:20;101467.66;;;4.35;100.00
4085;BME280;2057;50.858;6.572;2023-12-14T23:07:45;101460.13;;;4.35;100.00
4085;BME280;2057;50.858;6.572;2023-12-14T23:10:11;101466.84;;;4.26;100.00
4085;BME280;2057;50.858;6.572;2023-12-14T23:12:39;101470.38;;;4.28;100.00
4085;BME280;2057;50.858;6.572;2023-12-14T23:15:06;101476.59;;;4.23;100.00
4085;BME280;2057;50.858;6.572;2023-12-14T23:17:32;101473.34;;;4.24;100.00
4085;BME280;2057;50.858;6.572;2023-12-14T23:19:57;101471.88;;;4.26;100.00
4085;BME280;2057;50.858;6.572;2023-12-14T23:22:23;101480.16;;;4.25;100.00
4085;BME280;2057;50.858;6.572;2023-12-14T23:24:48;101478.47;;;4.34;100.00
4085;BME280;2057;50.858;6.572;2023-12-14T23:27:14;101485.06;;;4.43;100.00
4085;BME280;2057;50.858;6.572;2023-12-14T23:29:40;101489.06;;;4.60;100.00
4085;BME280;2057;50.858;6.572;2023-12-14T23:32:05;101490.44;;;4.56;100.00
4085;BME280;2057;50.858;6.572;2023-12-14T23:34:31;101494.72;;;4.57;100.00
4085;BME280;2057;50.858;6.572;2023-12-14T23:36:56;101497.72;;;4.53;100.00
4085;BME280;2057;50.858;6.572;2023-12-14T23:39:21;101495.66;;;4.49;100.00
4085;BME280;2057;50.858;6.572;2023-12-14T23:41:47;101503.94;;;4.48;100.00
4085;BME280;2057;50.858;6.572;2023-12-14T23:44:12;101504.22;;;4.51;100.00
4085;BME280;2057;50.858;6.572;2023-12-14T23:46:37;101507.28;;;4.57;100.00
4085;BME280;2057;50.858;6.572;2023-12-14T23:49:12;101504.53;;;4.54;100.00
4085;BME280;2057;50.858;6.572;2023-12-14T23:51:37;101503.69;;;4.45;100.00
4085;BME280;2057;50.858;6.572;2023-12-14T23:54:02;101499.84;;;4.39;100.00
4085;BME280;2057;50.858;6.572;2023-12-14T23:56:28;101508.44;;;4.42;100.00
4085;BME280;2057;50.858;6.572;2023-12-14T23:58:55;101506.88;;;4.52;100.00
